ePrivacy and GPDR Cookie Consent by Cookie Consent
EmailTwitter


Surface observations / United Kingdom / EGLL (03772)

Regions: Quebec | Canada | USA | Europe | France | UK | Elsewhere
Station
Display
Info & Location for EGLL (03772) | Help decoding METAR

Weather Conditions observed on 2021/06/20 at 16:20 UTC at LONDON/HEATHROW, UK (EGLL)

Sky conditions: overcast.

Temperature: 17.0 Celsius.

Dewpoint: 13.0 Celsius.

Relative Humidity: 77%

Winds: Northeast at 15 km/h or 8 knots.

Mean Sea level Pressure: 100.80 kilopascals.

Horizontal visibility: 6.21 statute miles or 9.94 kilometers.

Height of the Ceiling: 488 metres ( 1600 feet ).

Coded METAR:

EGLL 201620Z AUTO 03008KT 360V070 9999 BKN016 BKN023 OVC035 17/13 Q1008 TEMPO

BKN014=